createdAt,value
2023-04-28T00:01:14.908Z,5.87
2023-04-28T00:03:42.582Z,5.17
2023-04-28T00:06:11.490Z,5.80
2023-04-28T00:08:38.838Z,5.70
2023-04-28T00:11:11.067Z,5.60
2023-04-28T00:13:39.429Z,6.23
2023-04-28T00:16:07.196Z,5.70
2023-04-28T00:18:34.492Z,5.83
2023-04-28T00:21:01.963Z,5.67
2023-04-28T00:23:29.326Z,6.13
2023-04-28T00:25:57.641Z,5.70
2023-04-28T00:30:55.236Z,7.70
2023-04-28T00:33:22.642Z,12.67
2023-04-28T00:35:50.071Z,16.37
2023-04-28T00:38:17.451Z,17.07
2023-04-28T00:40:44.725Z,18.10
2023-04-28T00:43:12.025Z,14.17
2023-04-28T00:45:39.363Z,13.40
2023-04-28T00:48:08.299Z,12.33
2023-04-28T00:50:36.925Z,11.90
2023-04-28T00:53:04.964Z,11.67
2023-04-28T00:55:35.391Z,11.47
2023-04-28T00:58:03.788Z,14.53
2023-04-28T01:00:31.225Z,11.53
2023-04-28T01:02:59.485Z,8.70
2023-04-28T01:05:29.535Z,7.50
2023-04-28T01:07:57.563Z,9.17
2023-04-28T01:10:25.198Z,7.80
2023-04-28T01:12:53.911Z,7.57
2023-04-28T01:15:21.709Z,7.03
2023-04-28T01:17:52.187Z,7.33
2023-04-28T01:20:19.657Z,7.33
2023-04-28T01:22:46.997Z,6.40
2023-04-28T01:25:14.666Z,6.50
2023-04-28T01:27:41.924Z,6.23
2023-04-28T01:30:09.684Z,6.00
2023-04-28T01:32:37.145Z,7.27
2023-04-28T01:35:04.727Z,6.80
2023-04-28T01:37:35.160Z,6.90
2023-04-28T01:40:02.463Z,6.33
2023-04-28T01:42:29.724Z,6.33
2023-04-28T01:44:57.514Z,7.23
2023-04-28T01:47:24.819Z,6.60
2023-04-28T01:49:52.905Z,7.07
2023-04-28T01:52:22.636Z,6.30
2023-04-28T01:54:50.717Z,6.57
2023-04-28T01:57:18.467Z,6.57
2023-04-28T01:59:46.885Z,7.20
2023-04-28T02:02:14.993Z,7.87
2023-04-28T02:04:43.123Z,7.90
2023-04-28T02:07:10.482Z,8.00
2023-04-28T02:09:37.802Z,7.33
2023-04-28T02:12:05.190Z,7.23
2023-04-28T02:14:32.690Z,7.33
2023-04-28T02:17:00.064Z,6.97
2023-04-28T02:19:27.372Z,7.63
2023-04-28T02:21:54.606Z,7.17
2023-04-28T02:24:21.872Z,7.27
2023-04-28T02:26:50.965Z,7.20
2023-04-28T02:29:18.677Z,6.07
2023-04-28T02:31:46.316Z,7.67
2023-04-28T02:34:14.731Z,6.93
2023-04-28T02:36:42.289Z,7.40
2023-04-28T02:39:10.147Z,7.40
2023-04-28T02:41:37.384Z,7.07
2023-04-28T02:44:05.212Z,7.27
2023-04-28T02:46:32.657Z,7.10
2023-04-28T02:49:00.001Z,7.40
2023-04-28T02:51:27.240Z,7.53
2023-04-28T02:53:55.083Z,7.30
2023-04-28T02:56:23.424Z,7.37
2023-04-28T02:58:51.012Z,8.27
2023-04-28T03:01:18.566Z,7.77
2023-04-28T03:03:46.295Z,7.53
2023-04-28T03:06:13.866Z,7.60
2023-04-28T03:08:41.390Z,7.57
2023-04-28T03:11:08.752Z,7.33
2023-04-28T03:13:36.222Z,7.63
2023-04-28T03:16:04.740Z,7.90
2023-04-28T03:18:32.858Z,7.67
2023-04-28T03:21:00.266Z,7.77
2023-04-28T03:23:28.839Z,7.03
2023-04-28T03:25:56.887Z,7.80
2023-04-28T03:28:25.341Z,8.00
2023-04-28T03:30:52.662Z,7.50
2023-04-28T03:33:20.167Z,7.37
2023-04-28T03:35:47.744Z,7.80
2023-04-28T03:38:15.724Z,7.50
2023-04-28T03:40:43.113Z,8.20
2023-04-28T03:43:45.462Z,7.53
2023-04-28T03:46:20.837Z,7.77
2023-04-28T03:48:48.987Z,7.57
2023-04-28T03:51:16.725Z,8.30
2023-04-28T03:53:44.061Z,8.80
2023-04-28T03:56:11.394Z,7.43
2023-04-28T03:58:39.797Z,8.13
2023-04-28T04:01:07.101Z,8.37
2023-04-28T04:03:34.567Z,8.40
2023-04-28T04:06:02.278Z,7.20
2023-04-28T04:08:32.422Z,7.97
2023-04-28T04:11:01.362Z,7.73
2023-04-28T04:13:28.822Z,7.87
2023-04-28T04:15:57.670Z,7.37
2023-04-28T04:18:25.880Z,7.07
2023-04-28T04:21:15.067Z,7.60
2023-04-28T04:23:42.410Z,7.80
2023-04-28T04:26:09.716Z,8.70
2023-04-28T04:28:37.622Z,9.53
2023-04-28T04:31:06.530Z,9.17
2023-04-28T04:33:34.735Z,7.90
2023-04-28T04:36:02.761Z,7.77
2023-04-28T04:38:30.874Z,8.13
2023-04-28T04:41:02.304Z,8.37
2023-04-28T04:43:29.620Z,7.00
2023-04-28T04:45:57.056Z,8.10
2023-04-28T04:48:24.374Z,7.80
2023-04-28T04:50:52.224Z,8.00
2023-04-28T04:53:20.100Z,9.20
2023-04-28T04:55:47.544Z,8.03
2023-04-28T04:58:16.641Z,7.17
2023-04-28T05:01:02.575Z,6.97
2023-04-28T05:03:29.948Z,6.37
2023-04-28T05:05:57.401Z,6.70
2023-04-28T05:08:34.424Z,6.33
2023-04-28T05:11:03.072Z,6.37
2023-04-28T05:13:30.823Z,6.33
2023-04-28T05:16:02.064Z,6.17
2023-04-28T05:18:55.184Z,6.57
2023-04-28T05:21:22.569Z,6.10
2023-04-28T05:23:50.070Z,6.50
2023-04-28T05:26:17.529Z,7.10
2023-04-28T05:28:45.089Z,6.40
2023-04-28T05:31:12.391Z,5.93
2023-04-28T05:33:39.643Z,7.17
2023-04-28T05:36:07.562Z,6.20
2023-04-28T05:38:36.379Z,6.13
2023-04-28T05:41:06.217Z,6.93
2023-04-28T05:43:33.844Z,6.40
2023-04-28T05:46:01.629Z,6.63
2023-04-28T05:48:29.006Z,6.93
2023-04-28T05:50:56.267Z,6.47
2023-04-28T05:53:23.728Z,6.17
2023-04-28T05:55:52.505Z,6.07
2023-04-28T05:58:20.968Z,6.53
2023-04-28T06:00:48.587Z,6.07
2023-04-28T06:03:19.439Z,5.63
2023-04-28T06:05:47.523Z,6.07
2023-04-28T06:08:15.953Z,6.50
2023-04-28T06:10:43.257Z,6.23
2023-04-28T06:13:11.365Z,5.90
2023-04-28T06:15:39.545Z,5.70
2023-04-28T06:18:07.597Z,5.40
2023-04-28T06:20:35.707Z,5.70
2023-04-28T06:23:04.288Z,4.97
2023-04-28T06:25:31.975Z,5.00
2023-04-28T06:27:59.882Z,5.10
2023-04-28T06:30:27.169Z,4.60
2023-04-28T06:32:57.788Z,4.33
2023-04-28T06:35:25.386Z,4.80
2023-04-28T06:37:52.981Z,4.80
2023-04-28T06:40:40.873Z,4.60
2023-04-28T06:43:08.873Z,3.90
2023-04-28T06:45:41.785Z,4.63
2023-04-28T06:48:09.297Z,4.17
2023-04-28T06:50:39.387Z,4.23
2023-04-28T06:53:08.298Z,4.33
2023-04-28T06:55:35.777Z,4.00
2023-04-28T06:58:03.128Z,3.80
2023-04-28T07:00:30.643Z,4.10
2023-04-28T07:02:58.275Z,4.13
2023-04-28T07:05:25.985Z,4.30
2023-04-28T07:07:53.628Z,3.73
2023-04-28T07:10:20.887Z,3.27
2023-04-28T07:12:49.907Z,3.70
2023-04-28T07:15:17.689Z,3.87
2023-04-28T07:17:45.422Z,3.23
2023-04-28T07:20:15.035Z,3.27
2023-04-28T07:22:42.414Z,3.80
2023-04-28T07:25:10.162Z,3.70
2023-04-28T07:27:37.478Z,3.30
2023-04-28T07:30:18.616Z,3.50
2023-04-28T07:32:52.773Z,3.30
2023-04-28T07:35:20.058Z,3.80
2023-04-28T07:37:47.583Z,3.50
2023-04-28T07:40:14.954Z,3.60
2023-04-28T07:42:42.546Z,4.10
2023-04-28T07:45:11.770Z,3.50
2023-04-28T07:47:39.400Z,3.20
2023-04-28T07:50:07.554Z,3.63
2023-04-28T07:52:35.989Z,3.63
2023-04-28T07:55:04.392Z,3.07
2023-04-28T07:57:31.739Z,3.17
2023-04-28T07:59:59.162Z,3.17
2023-04-28T08:02:27.520Z,3.13
2023-04-28T08:04:55.141Z,3.00
2023-04-28T08:07:22.649Z,3.13
2023-04-28T08:09:50.726Z,3.10
2023-04-28T08:12:19.376Z,3.10
2023-04-28T08:14:46.647Z,2.60
2023-04-28T08:17:13.955Z,3.40
2023-04-28T08:19:41.268Z,2.70
2023-04-28T08:22:08.510Z,3.20
2023-04-28T08:24:36.018Z,3.23
2023-04-28T08:27:03.868Z,3.07
2023-04-28T08:29:32.508Z,2.80
2023-04-28T08:32:01.839Z,3.20
2023-04-28T08:34:29.465Z,2.57
2023-04-28T08:36:56.907Z,2.57
2023-04-28T08:39:26.434Z,3.27
2023-04-28T08:41:54.147Z,2.73
2023-04-28T08:44:23.567Z,3.10
2023-04-28T08:46:56.460Z,3.10
2023-04-28T08:49:32.844Z,2.83
2023-04-28T08:52:00.719Z,3.30
2023-04-28T08:54:32.102Z,2.90
2023-04-28T08:57:01.213Z,3.17
2023-04-28T08:59:28.916Z,3.67
2023-04-28T09:01:57.100Z,3.93
2023-04-28T09:04:25.094Z,3.97
2023-04-28T09:06:52.720Z,3.23
2023-04-28T09:09:30.751Z,3.00
2023-04-28T09:12:04.638Z,3.40
2023-04-28T09:14:34.535Z,3.20
2023-04-28T09:17:03.048Z,3.20
2023-04-28T09:19:38.870Z,2.80
2023-04-28T09:22:21.797Z,3.20
2023-04-28T09:24:55.132Z,3.30
2023-04-28T09:27:28.985Z,3.30
2023-04-28T09:29:56.496Z,3.20
2023-04-28T09:32:24.329Z,2.93
2023-04-28T09:34:54.490Z,3.13
2023-04-28T09:37:23.490Z,3.23
2023-04-28T09:39:52.444Z,2.70
2023-04-28T09:42:42.438Z,2.20
2023-04-28T09:45:11.277Z,2.37
2023-04-28T09:47:40.926Z,2.73
2023-04-28T09:50:15.272Z,2.47
2023-04-28T09:52:45.827Z,2.27
2023-04-28T09:55:13.282Z,2.83
2023-04-28T09:57:41.117Z,2.30
2023-04-28T10:00:09.423Z,2.67
2023-04-28T10:05:09.967Z,2.60
2023-04-28T10:07:39.013Z,2.60
2023-04-28T10:10:07.909Z,2.50
2023-04-28T10:12:38.193Z,2.70
2023-04-28T10:15:07.559Z,2.30
2023-04-28T10:17:36.592Z,2.63
2023-04-28T10:20:05.386Z,2.50
2023-04-28T10:23:11.796Z,2.60
2023-04-28T10:25:39.233Z,2.50
2023-04-28T10:28:09.081Z,2.67
2023-04-28T10:30:37.857Z,2.23
2023-04-28T10:33:14.700Z,2.20
2023-04-28T10:35:45.068Z,2.37
2023-04-28T10:38:16.877Z,2.30
2023-04-28T10:40:49.032Z,2.40
2023-04-28T10:43:25.642Z,2.67
2023-04-28T10:45:57.581Z,2.23
2023-04-28T10:48:34.731Z,2.30
2023-04-28T10:51:09.586Z,2.50
2023-04-28T10:53:46.148Z,2.20
2023-04-28T10:56:19.272Z,2.17
2023-04-28T10:58:48.414Z,2.23
2023-04-28T11:01:22.354Z,2.23
2023-04-28T11:03:54.299Z,2.30
2023-04-28T11:06:29.014Z,2.30
2023-04-28T11:09:01.793Z,2.00
2023-04-28T11:11:35.031Z,2.30
2023-04-28T11:14:20.584Z,2.00
2023-04-28T11:17:03.233Z,2.37
2023-04-28T11:19:39.027Z,2.13
2023-04-28T11:22:17.829Z,2.30
2023-04-28T11:25:02.611Z,2.27
2023-04-28T11:27:34.575Z,2.53
2023-04-28T11:30:02.347Z,2.33
2023-04-28T11:32:34.910Z,2.40
2023-04-28T11:35:04.794Z,2.27
2023-04-28T11:37:32.141Z,2.30
2023-04-28T11:40:09.685Z,2.40
2023-04-28T11:42:37.187Z,2.37
2023-04-28T11:45:04.833Z,2.33
2023-04-28T11:47:33.798Z,2.10
2023-04-28T11:50:02.167Z,2.13
2023-04-28T11:52:29.605Z,2.23
2023-04-28T11:54:59.883Z,2.20
2023-04-28T11:57:27.675Z,2.30
2023-04-28T12:00:13.061Z,2.17
2023-04-28T12:02:40.596Z,2.40
2023-04-28T12:05:08.902Z,2.40
2023-04-28T12:07:44.422Z,15.90
2023-04-28T12:10:14.405Z,3.10
2023-04-28T12:12:50.831Z,2.10
2023-04-28T12:15:21.094Z,2.20
2023-04-28T12:17:50.537Z,2.57
2023-04-28T12:20:35.454Z,2.03
2023-04-28T12:23:03.065Z,2.07
2023-04-28T12:25:30.459Z,2.30
2023-04-28T12:28:07.826Z,2.33
2023-04-28T12:30:39.676Z,2.40
2023-04-28T12:33:21.477Z,2.40
2023-04-28T12:35:49.874Z,2.70
2023-04-28T12:38:17.954Z,2.73
2023-04-28T12:40:45.250Z,2.20
2023-04-28T12:43:12.520Z,2.27
2023-04-28T12:45:41.213Z,2.43
2023-04-28T12:48:08.478Z,2.47
2023-04-28T12:50:35.969Z,2.17
2023-04-28T12:53:03.371Z,2.20
2023-04-28T12:55:30.884Z,2.40
2023-04-28T12:57:59.490Z,2.27
2023-04-28T13:00:26.870Z,2.47
2023-04-28T13:02:54.306Z,2.40
2023-04-28T13:05:22.104Z,2.40
2023-04-28T13:07:50.841Z,2.20
2023-04-28T13:10:18.923Z,2.40
2023-04-28T13:12:46.163Z,2.50
2023-04-28T13:15:13.499Z,2.40
2023-04-28T13:17:40.858Z,3.53
2023-04-28T13:20:09.088Z,2.10
2023-04-28T13:22:36.430Z,2.93
2023-04-28T13:25:03.948Z,2.93
2023-04-28T13:27:31.169Z,3.07
2023-04-28T13:29:59.224Z,3.60
2023-04-28T13:32:28.063Z,2.70
2023-04-28T13:34:55.476Z,3.97
2023-04-28T13:37:22.736Z,2.70
2023-04-28T13:39:50.308Z,5.63
2023-04-28T13:42:17.565Z,2.33
2023-04-28T13:44:46.869Z,4.67
2023-04-28T13:47:14.341Z,3.13
2023-04-28T13:49:41.721Z,3.03
2023-04-28T13:52:08.972Z,2.67
2023-04-28T13:54:36.566Z,2.30
2023-04-28T13:57:03.979Z,2.63
2023-04-28T13:59:31.387Z,2.53
2023-04-28T14:01:58.666Z,2.50
2023-04-28T14:04:26.258Z,4.20
2023-04-28T14:06:53.782Z,3.50
2023-04-28T14:09:21.174Z,2.70
2023-04-28T14:11:48.414Z,2.60
2023-04-28T14:14:15.714Z,2.87
2023-04-28T14:16:42.981Z,4.07
2023-04-28T14:19:10.380Z,2.80
2023-04-28T14:21:37.670Z,2.90
2023-04-28T14:24:05.148Z,2.60
2023-04-28T14:26:32.565Z,2.67
2023-04-28T14:29:00.596Z,2.90
2023-04-28T14:31:28.431Z,3.13
2023-04-28T14:33:56.104Z,2.73
2023-04-28T14:36:23.392Z,2.63
2023-04-28T14:38:51.026Z,2.80
2023-04-28T14:41:18.357Z,3.00
2023-04-28T14:43:46.308Z,3.53
2023-04-28T14:46:13.939Z,2.73
2023-04-28T14:48:41.522Z,2.87
2023-04-28T14:51:09.051Z,3.20
2023-04-28T14:53:36.368Z,3.13
2023-04-28T14:56:17.923Z,4.50
2023-04-28T14:58:47.655Z,3.70
2023-04-28T15:01:15.166Z,3.87
2023-04-28T15:03:43.513Z,3.90
2023-04-28T15:06:11.984Z,3.70
2023-04-28T15:08:40.427Z,3.57
2023-04-28T15:11:07.779Z,3.70
2023-04-28T15:13:35.177Z,3.77
2023-04-28T15:16:03.035Z,4.33
2023-04-28T15:18:30.998Z,4.37
2023-04-28T15:20:58.367Z,4.30
2023-04-28T15:23:25.613Z,4.07
2023-04-28T15:25:54.121Z,4.07
2023-04-28T15:28:22.239Z,4.20
2023-04-28T15:30:49.533Z,3.97
2023-04-28T15:33:19.666Z,4.20
2023-04-28T15:35:47.144Z,4.60
2023-04-28T15:38:14.556Z,4.10
2023-04-28T15:40:44.400Z,4.33
2023-04-28T15:43:13.604Z,4.43
2023-04-28T15:45:41.200Z,4.23
2023-04-28T15:48:10.212Z,4.10
2023-04-28T15:50:37.717Z,4.47
2023-04-28T15:53:05.021Z,4.50
2023-04-28T15:55:32.493Z,4.30
2023-04-28T15:58:00.800Z,4.53
2023-04-28T16:00:28.129Z,3.80
2023-04-28T16:02:55.511Z,3.93
2023-04-28T16:05:22.926Z,5.00
2023-04-28T16:07:52.636Z,5.10
2023-04-28T16:10:20.529Z,4.93
2023-04-28T16:12:47.903Z,5.07
2023-04-28T16:15:15.315Z,5.17
2023-04-28T16:17:44.702Z,4.97
2023-04-28T16:20:12.180Z,8.67
2023-04-28T16:22:41.001Z,5.73
2023-04-28T16:25:09.257Z,5.10
2023-04-28T16:27:37.420Z,5.40
2023-04-28T16:30:08.538Z,5.80
2023-04-28T16:32:38.798Z,6.07
2023-04-28T16:35:10.775Z,5.93
2023-04-28T16:37:43.217Z,6.53
2023-04-28T16:40:11.496Z,7.00
2023-04-28T16:42:39.469Z,6.53
2023-04-28T16:45:07.245Z,6.47
2023-04-28T16:47:34.518Z,6.67
2023-04-28T16:50:01.830Z,5.87
2023-04-28T16:52:29.109Z,6.70
2023-04-28T16:54:56.626Z,7.70
2023-04-28T16:57:27.312Z,16.70
2023-04-28T16:59:54.603Z,17.33
2023-04-28T17:02:22.531Z,18.07
2023-04-28T17:04:51.510Z,15.60
2023-04-28T17:07:18.789Z,9.30
2023-04-28T17:09:46.117Z,7.47
2023-04-28T17:12:13.413Z,9.20
2023-04-28T17:14:40.893Z,8.20
2023-04-28T17:17:08.132Z,8.43
2023-04-28T17:19:35.701Z,8.17
2023-04-28T17:22:03.444Z,8.50
2023-04-28T17:24:30.801Z,7.07
2023-04-28T17:26:58.115Z,7.60
2023-04-28T17:29:26.749Z,8.13
2023-04-28T17:31:54.380Z,8.60
2023-04-28T17:34:21.817Z,8.43
2023-04-28T17:36:49.162Z,8.97
2023-04-28T17:39:16.806Z,9.00
2023-04-28T17:41:45.298Z,9.93
2023-04-28T17:44:12.721Z,11.60
2023-04-28T17:46:40.095Z,11.33
2023-04-28T17:49:07.438Z,10.30
2023-04-28T17:51:34.792Z,10.57
2023-04-28T17:54:02.272Z,10.90
2023-04-28T17:56:29.584Z,10.00
2023-04-28T17:58:56.989Z,9.50
2023-04-28T18:01:24.456Z,7.70
2023-04-28T18:03:51.823Z,8.87
2023-04-28T18:06:22.310Z,9.60
2023-04-28T18:08:50.004Z,9.93
2023-04-28T18:11:17.307Z,9.03
2023-04-28T18:13:44.715Z,9.43
2023-04-28T18:16:14.854Z,8.53
2023-04-28T18:18:42.277Z,8.33
2023-04-28T18:21:09.999Z,8.37
2023-04-28T18:23:37.550Z,8.83
2023-04-28T18:26:04.882Z,9.70
2023-04-28T18:28:33.845Z,11.37
2023-04-28T18:31:07.555Z,13.23
2023-04-28T18:33:35.253Z,12.50
2023-04-28T18:36:08.014Z,12.33
2023-04-28T18:38:36.530Z,12.23
2023-04-28T18:41:18.470Z,13.53
2023-04-28T18:43:46.233Z,12.70
2023-04-28T18:46:13.724Z,12.27
2023-04-28T18:48:41.189Z,12.63
2023-04-28T18:51:08.543Z,14.37
2023-04-28T18:53:36.248Z,17.60
2023-04-28T18:56:03.655Z,13.33
2023-04-28T18:58:31.141Z,31.37
2023-04-28T19:00:58.551Z,12.43
2023-04-28T19:03:26.245Z,16.97
2023-04-28T19:05:53.909Z,15.50
2023-04-28T19:08:21.334Z,15.27
2023-04-28T19:10:49.048Z,13.77
2023-04-28T19:13:16.741Z,12.97
2023-04-28T19:15:44.002Z,21.30
2023-04-28T19:18:12.461Z,32.63
2023-04-28T19:20:42.058Z,16.57
2023-04-28T19:23:09.528Z,16.23
2023-04-28T19:25:37.108Z,20.80
2023-04-28T19:28:04.581Z,17.37
2023-04-28T19:30:32.176Z,15.57
2023-04-28T19:32:59.773Z,15.00
2023-04-28T19:35:27.156Z,15.10
2023-04-28T19:37:55.812Z,14.83
2023-04-28T19:40:23.761Z,14.90
2023-04-28T19:42:51.356Z,14.87
2023-04-28T19:45:19.198Z,15.57
2023-04-28T19:47:46.948Z,15.57
2023-04-28T19:50:14.690Z,15.30
2023-04-28T19:52:41.952Z,14.37
2023-04-28T19:55:09.693Z,14.30
2023-04-28T19:57:37.572Z,15.40
2023-04-28T20:00:05.711Z,15.00
2023-04-28T20:02:35.266Z,15.43
2023-04-28T20:05:03.809Z,21.97
2023-04-28T20:07:31.511Z,19.17
2023-04-28T20:09:58.898Z,18.20
2023-04-28T20:12:26.461Z,18.00
2023-04-28T20:14:54.354Z,16.90
2023-04-28T20:17:22.025Z,19.70
2023-04-28T20:19:49.662Z,19.07
2023-04-28T20:22:17.124Z,12.80
2023-04-28T20:24:44.460Z,11.03
2023-04-28T20:27:12.843Z,11.50
2023-04-28T20:29:40.185Z,11.70
2023-04-28T20:32:07.579Z,11.43
2023-04-28T20:34:36.614Z,12.37
2023-04-28T20:37:06.225Z,12.70
2023-04-28T20:39:33.620Z,12.90
2023-04-28T20:42:01.956Z,12.80
2023-04-28T20:44:29.306Z,12.80
2023-04-28T20:46:57.057Z,12.83
2023-04-28T20:49:25.069Z,17.00
2023-04-28T20:51:52.722Z,16.67
2023-04-28T20:54:20.174Z,14.93
2023-04-28T20:56:47.544Z,13.70
2023-04-28T20:59:14.910Z,15.43
2023-04-28T21:01:42.261Z,13.73
2023-04-28T21:04:10.236Z,13.57
2023-04-28T21:06:38.348Z,13.80
2023-04-28T21:09:05.562Z,13.60
2023-04-28T21:11:32.931Z,12.77
2023-04-28T21:14:00.190Z,13.80
2023-04-28T21:16:27.497Z,13.87
2023-04-28T21:18:54.968Z,13.50
2023-04-28T21:21:22.301Z,13.90
2023-04-28T21:23:49.936Z,15.37
2023-04-28T21:26:17.244Z,14.43
2023-04-28T21:28:44.581Z,13.83
2023-04-28T21:31:11.917Z,15.00
2023-04-28T21:33:39.243Z,15.37
2023-04-28T21:36:08.185Z,14.67
2023-04-28T21:38:36.877Z,15.53
2023-04-28T21:41:04.310Z,16.00
2023-04-28T21:43:31.583Z,16.73
2023-04-28T21:45:58.955Z,15.83
2023-04-28T21:48:26.250Z,15.40
2023-04-28T21:50:53.961Z,17.87
2023-04-28T21:53:21.324Z,16.33
2023-04-28T21:55:49.191Z,17.20
2023-04-28T21:58:16.527Z,17.10
2023-04-28T22:00:47.082Z,16.47
2023-04-28T22:03:15.343Z,17.87
2023-04-28T22:05:44.232Z,17.80
2023-04-28T22:08:12.517Z,17.47
2023-04-28T22:10:40.101Z,17.00
2023-04-28T22:13:07.405Z,18.00
2023-04-28T22:15:35.039Z,17.03
2023-04-28T22:18:02.575Z,16.93
2023-04-28T22:20:29.951Z,17.10
2023-04-28T22:22:57.964Z,16.00
2023-04-28T22:25:25.751Z,16.37
2023-04-28T22:27:53.261Z,16.50
2023-04-28T22:30:20.726Z,17.87
2023-04-28T22:32:48.200Z,17.20
2023-04-28T22:35:16.639Z,18.30
2023-04-28T22:37:44.325Z,18.77
2023-04-28T22:40:12.018Z,18.70
2023-04-28T22:42:41.214Z,18.03
2023-04-28T22:45:10.250Z,18.13
2023-04-28T22:47:40.027Z,17.23
2023-04-28T22:50:09.410Z,16.70
2023-04-28T22:52:37.641Z,17.27
2023-04-28T22:55:06.738Z,16.60
2023-04-28T22:57:34.836Z,16.03
2023-04-28T23:00:04.049Z,15.87
2023-04-28T23:02:31.994Z,16.57
2023-04-28T23:05:00.250Z,15.73
2023-04-28T23:07:28.139Z,15.57
2023-04-28T23:09:55.785Z,15.27
2023-04-28T23:12:23.134Z,15.30
2023-04-28T23:14:50.484Z,14.67
2023-04-28T23:17:18.136Z,14.67
2023-04-28T23:19:45.480Z,15.33
2023-04-28T23:22:12.952Z,16.03
2023-04-28T23:24:40.343Z,15.40
2023-04-28T23:27:07.837Z,15.43
2023-04-28T23:29:35.916Z,15.63
2023-04-28T23:32:04.136Z,17.37
2023-04-28T23:34:31.525Z,15.87
2023-04-28T23:36:58.799Z,14.93
2023-04-28T23:39:26.128Z,14.60
2023-04-28T23:41:53.487Z,14.80
2023-04-28T23:44:20.998Z,14.70
2023-04-28T23:46:49.251Z,14.97
2023-04-28T23:49:16.711Z,15.77
2023-04-28T23:51:44.075Z,15.47
2023-04-28T23:54:11.694Z,15.27
2023-04-28T23:56:39.078Z,15.43
2023-04-28T23:59:06.448Z,14.53
